createdAt,value
2023-01-02T00:01:04.947Z,13.77
2023-01-02T00:03:33.014Z,13.70
2023-01-02T00:06:03.778Z,13.00
2023-01-02T00:08:31.803Z,13.57
2023-01-02T00:11:00.174Z,14.20
2023-01-02T00:13:28.388Z,14.00
2023-01-02T00:15:57.619Z,13.93
2023-01-02T00:18:25.492Z,13.13
2023-01-02T00:20:53.351Z,13.20
2023-01-02T00:23:21.201Z,14.50
2023-01-02T00:25:49.062Z,13.43
2023-01-02T00:28:17.223Z,13.20
2023-01-02T00:30:45.205Z,14.90
2023-01-02T00:33:14.433Z,13.33
2023-01-02T00:35:42.574Z,14.67
2023-01-02T00:38:10.394Z,15.40
2023-01-02T00:40:38.558Z,13.93
2023-01-02T00:43:06.426Z,13.60
2023-01-02T00:45:34.295Z,13.13
2023-01-02T00:48:02.087Z,13.33
2023-01-02T00:50:31.249Z,12.73
2023-01-02T00:52:59.527Z,13.73
2023-01-02T00:55:27.331Z,15.00
2023-01-02T00:57:55.211Z,13.47
2023-01-02T01:00:24.321Z,13.50
2023-01-02T01:02:56.473Z,14.60
2023-01-02T01:05:24.624Z,13.50
2023-01-02T01:07:54.833Z,13.20
2023-01-02T01:10:23.164Z,13.00
2023-01-02T01:12:52.152Z,12.07
2023-01-02T01:15:20.150Z,13.13
2023-01-02T01:17:48.149Z,12.40
2023-01-02T01:20:16.009Z,12.30
2023-01-02T01:22:44.025Z,12.30
2023-01-02T01:25:13.360Z,14.03
2023-01-02T01:27:41.294Z,20.23
2023-01-02T01:30:09.982Z,16.17
2023-01-02T01:32:37.846Z,15.60
2023-01-02T01:35:08.018Z,15.33
2023-01-02T01:37:35.935Z,13.70
2023-01-02T01:40:03.774Z,13.60
2023-01-02T01:42:34.673Z,13.17
2023-01-02T01:45:02.650Z,13.03
2023-01-02T01:47:38.791Z,12.13
2023-01-02T01:50:10.297Z,12.80
2023-01-02T01:52:42.891Z,12.17
2023-01-02T01:55:15.461Z,12.07
2023-01-02T01:57:50.410Z,12.50
2023-01-02T02:00:18.890Z,12.27
2023-01-02T02:02:51.642Z,13.40
2023-01-02T02:05:24.963Z,13.00
2023-01-02T02:08:03.053Z,13.50
2023-01-02T02:10:31.463Z,12.80
2023-01-02T02:13:00.809Z,11.23
2023-01-02T02:15:37.485Z,12.40
2023-01-02T02:18:17.753Z,13.80
2023-01-02T02:20:52.650Z,11.77
2023-01-02T02:23:46.925Z,12.63
2023-01-02T02:26:54.549Z,13.53
2023-01-02T02:30:04.370Z,11.73
2023-01-02T02:33:01.745Z,13.27
2023-01-02T02:35:38.768Z,12.80
2023-01-02T02:38:12.993Z,12.97
2023-01-02T02:40:54.593Z,12.07
2023-01-02T02:43:30.376Z,11.50
2023-01-02T02:46:06.389Z,11.90
2023-01-02T02:48:46.846Z,13.07
2023-01-02T02:51:19.749Z,13.10
2023-01-02T02:53:55.219Z,12.00
2023-01-02T02:56:25.729Z,12.70
2023-01-02T02:58:56.305Z,13.67
2023-01-02T03:01:30.519Z,12.93
2023-01-02T03:04:00.441Z,12.57
2023-01-02T03:06:46.480Z,12.57
2023-01-02T03:09:20.138Z,12.77
2023-01-02T03:11:56.072Z,12.87
2023-01-02T03:14:34.537Z,11.37
2023-01-02T03:17:07.386Z,11.90
2023-01-02T03:19:42.907Z,11.73
2023-01-02T03:22:16.303Z,11.97
2023-01-02T03:24:46.323Z,11.60
2023-01-02T03:27:23.096Z,11.73
2023-01-02T03:29:55.283Z,11.50
2023-01-02T03:32:28.901Z,11.40
2023-01-02T03:35:02.302Z,12.90
2023-01-02T03:37:34.014Z,11.70
2023-01-02T03:40:08.079Z,12.30
2023-01-02T03:42:41.519Z,12.17
2023-01-02T03:45:17.129Z,12.83
2023-01-02T03:47:53.562Z,12.60
2023-01-02T03:50:26.318Z,13.33
2023-01-02T03:52:54.681Z,12.33
2023-01-02T03:55:24.765Z,13.53
2023-01-02T03:57:59.042Z,13.30
2023-01-02T04:00:34.398Z,13.30
2023-01-02T04:03:07.415Z,12.50
2023-01-02T04:05:41.876Z,13.30
2023-01-02T04:08:14.651Z,13.37
2023-01-02T04:10:45.151Z,12.63
2023-01-02T04:13:17.516Z,13.00
2023-01-02T04:15:48.269Z,12.63
2023-01-02T04:18:21.736Z,13.00
2023-01-02T04:20:54.681Z,13.67
2023-01-02T04:23:26.434Z,12.60
2023-01-02T04:26:00.313Z,13.27
2023-01-02T04:28:31.064Z,12.60
2023-01-02T04:31:06.754Z,11.67
2023-01-02T04:33:39.095Z,13.93
2023-01-02T04:36:13.457Z,15.53
2023-01-02T04:38:42.627Z,16.20
2023-01-02T04:41:13.534Z,15.33
2023-01-02T04:43:41.649Z,14.20
2023-01-02T04:46:09.487Z,15.37
2023-01-02T04:48:37.968Z,16.17
2023-01-02T04:51:06.258Z,14.90
2023-01-02T04:53:35.491Z,14.83
2023-01-02T04:56:03.437Z,13.50
2023-01-02T04:58:31.437Z,13.43
2023-01-02T05:01:00.039Z,13.93
2023-01-02T05:03:28.017Z,14.17
2023-01-02T05:06:00.797Z,10.80
2023-01-02T05:08:29.858Z,14.30
2023-01-02T05:11:06.371Z,13.83
2023-01-02T05:13:34.348Z,14.77
2023-01-02T05:16:03.900Z,13.50
2023-01-02T05:18:32.777Z,15.13
2023-01-02T05:21:02.696Z,16.30
2023-01-02T05:23:57.047Z,15.37
2023-01-02T05:26:26.466Z,16.73
2023-01-02T05:28:54.975Z,15.30
2023-01-02T05:31:23.329Z,13.90
2023-01-02T05:33:53.492Z,14.57
2023-01-02T05:36:22.451Z,14.00
2023-01-02T05:38:50.499Z,19.37
2023-01-02T05:41:18.435Z,22.70
2023-01-02T05:43:47.751Z,17.67
2023-01-02T05:46:16.921Z,17.60
2023-01-02T05:48:45.936Z,16.30
2023-01-02T05:51:15.879Z,15.50
2023-01-02T05:53:44.301Z,17.13
2023-01-02T05:56:13.816Z,14.80
2023-01-02T05:58:44.713Z,13.53
2023-01-02T06:01:15.404Z,13.33
2023-01-02T06:03:46.274Z,14.07
2023-01-02T06:06:14.490Z,16.37
2023-01-02T06:08:42.476Z,15.37
2023-01-02T06:11:10.891Z,16.43
2023-01-02T06:13:39.595Z,16.67
2023-01-02T06:16:09.556Z,16.47
2023-01-02T06:18:40.385Z,14.83
2023-01-02T06:21:09.915Z,14.07
2023-01-02T06:23:38.337Z,13.87
2023-01-02T06:26:07.868Z,13.03
2023-01-02T06:28:35.762Z,12.80
2023-01-02T06:31:05.205Z,12.50
2023-01-02T06:33:33.573Z,15.37
2023-01-02T06:36:04.440Z,14.23
2023-01-02T06:38:32.567Z,14.93
2023-01-02T06:41:02.478Z,13.83
2023-01-02T06:43:31.203Z,14.37
2023-01-02T06:45:59.897Z,13.00
2023-01-02T06:48:28.393Z,12.87
2023-01-02T06:50:56.354Z,10.87
2023-01-02T06:53:25.567Z,12.87
2023-01-02T06:55:54.097Z,13.40
2023-01-02T06:58:22.748Z,16.43
2023-01-02T07:00:51.168Z,17.13
2023-01-02T07:03:19.387Z,14.80
2023-01-02T07:05:47.551Z,13.50
2023-01-02T07:08:16.452Z,13.20
2023-01-02T07:10:52.536Z,15.00
2023-01-02T07:13:21.080Z,14.97
2023-01-02T07:15:48.891Z,13.30
2023-01-02T07:18:16.702Z,12.10
2023-01-02T07:20:44.911Z,13.10
2023-01-02T07:23:12.790Z,12.67
2023-01-02T07:25:44.348Z,13.63
2023-01-02T07:28:13.981Z,13.67
2023-01-02T07:30:41.854Z,12.03
2023-01-02T07:33:09.732Z,12.90
2023-01-02T07:35:38.457Z,11.90
2023-01-02T07:38:06.274Z,10.27
2023-01-02T07:40:34.662Z,9.73
2023-01-02T07:43:02.487Z,10.87
2023-01-02T07:45:33.071Z,9.87
2023-01-02T07:48:01.128Z,11.73
2023-01-02T07:50:29.150Z,10.20
2023-01-02T07:52:57.012Z,13.03
2023-01-02T07:55:24.822Z,10.83
2023-01-02T07:57:52.874Z,11.63
2023-01-02T08:00:21.639Z,10.70
2023-01-02T08:02:55.129Z,10.80
2023-01-02T08:05:23.857Z,11.10
2023-01-02T08:07:51.819Z,13.40
2023-01-02T08:10:19.659Z,11.63
2023-01-02T08:12:47.479Z,11.50
2023-01-02T08:15:15.515Z,12.10
2023-01-02T08:17:43.318Z,14.87
2023-01-02T08:20:12.898Z,15.43
2023-01-02T08:22:40.941Z,14.00
2023-01-02T08:25:10.687Z,12.90
2023-01-02T08:27:39.171Z,16.00
2023-01-02T08:30:08.033Z,16.07
2023-01-02T08:32:37.434Z,16.23
2023-01-02T08:35:06.316Z,15.70
2023-01-02T08:37:35.835Z,15.60
2023-01-02T08:40:06.574Z,13.77
2023-01-02T08:42:34.416Z,13.50
2023-01-02T08:45:02.228Z,13.03
2023-01-02T08:47:30.146Z,12.03
2023-01-02T08:49:57.977Z,12.37
2023-01-02T08:52:25.876Z,11.63
2023-01-02T08:54:55.214Z,12.33
2023-01-02T08:57:23.148Z,11.47
2023-01-02T08:59:51.094Z,10.60
2023-01-02T09:02:19.510Z,12.47
2023-01-02T09:04:47.442Z,11.90
2023-01-02T09:07:15.430Z,11.00
2023-01-02T09:09:43.333Z,12.80
2023-01-02T09:12:12.467Z,15.50
2023-01-02T09:14:40.398Z,30.03
2023-01-02T09:17:08.545Z,32.20
2023-01-02T09:19:37.034Z,28.17
2023-01-02T09:22:05.746Z,25.47
2023-01-02T09:24:33.677Z,24.20
2023-01-02T09:27:01.527Z,24.67
2023-01-02T09:29:30.758Z,22.80
2023-01-02T09:31:58.627Z,22.00
2023-01-02T09:34:27.863Z,23.10
2023-01-02T09:36:55.757Z,23.57
2023-01-02T09:39:28.541Z,23.10
2023-01-02T09:42:01.773Z,20.20
2023-01-02T09:44:38.088Z,20.90
2023-01-02T09:47:09.222Z,18.20
2023-01-02T09:49:44.846Z,15.33
2023-01-02T09:52:16.913Z,18.80
2023-01-02T09:54:44.868Z,20.30
2023-01-02T09:57:28.368Z,19.83
2023-01-02T10:00:03.711Z,21.27
2023-01-02T10:02:46.119Z,21.50
2023-01-02T10:05:28.681Z,22.17
2023-01-02T10:08:04.687Z,22.67
2023-01-02T10:10:36.343Z,22.87
2023-01-02T10:13:14.507Z,23.70
2023-01-02T10:15:48.258Z,24.57
2023-01-02T10:18:23.366Z,25.23
2023-01-02T10:20:56.461Z,23.60
2023-01-02T10:23:29.614Z,25.93
2023-01-02T10:26:02.538Z,22.30
2023-01-02T10:28:40.847Z,46.73
2023-01-02T10:31:16.575Z,30.23
2023-01-02T10:33:48.637Z,22.33
2023-01-02T10:36:26.533Z,22.87
2023-01-02T10:38:59.199Z,21.63
2023-01-02T10:41:27.975Z,23.13
2023-01-02T10:43:59.217Z,23.00
2023-01-02T10:46:34.632Z,21.37
2023-01-02T10:49:03.656Z,25.47
2023-01-02T10:51:31.977Z,25.63
2023-01-02T10:54:01.823Z,23.17
2023-01-02T10:56:32.385Z,24.50
2023-01-02T10:59:01.267Z,22.53
2023-01-02T11:01:31.325Z,22.13
2023-01-02T11:04:13.510Z,20.40
2023-01-02T11:06:56.729Z,22.80
2023-01-02T11:09:27.024Z,23.80
2023-01-02T11:11:56.479Z,21.87
2023-01-02T11:14:28.894Z,21.73
2023-01-02T11:17:05.401Z,22.77
2023-01-02T11:19:41.004Z,22.80
2023-01-02T11:22:09.529Z,23.07
2023-01-02T11:24:53.010Z,21.43
2023-01-02T11:27:31.704Z,21.93
2023-01-02T11:30:00.567Z,20.93
2023-01-02T11:32:38.586Z,22.97
2023-01-02T11:35:27.632Z,20.63
2023-01-02T11:37:56.148Z,20.83
2023-01-02T11:40:27.912Z,21.73
2023-01-02T11:43:16.473Z,20.80
2023-01-02T11:45:45.036Z,21.60
2023-01-02T11:48:21.654Z,21.07
2023-01-02T11:50:50.899Z,18.83
2023-01-02T11:53:22.378Z,19.17
2023-01-02T11:55:55.487Z,19.87
2023-01-02T11:58:29.141Z,21.63
2023-01-02T12:01:03.596Z,22.10
2023-01-02T12:03:34.807Z,23.60
2023-01-02T12:06:16.262Z,23.20
2023-01-02T12:08:59.474Z,23.00
2023-01-02T12:11:40.830Z,23.10
2023-01-02T12:14:14.892Z,23.90
2023-01-02T12:16:51.911Z,24.80
2023-01-02T12:20:10.625Z,23.30
2023-01-02T12:22:56.134Z,22.80
2023-01-02T12:25:42.933Z,22.30
2023-01-02T12:28:26.946Z,22.60
2023-01-02T12:31:10.054Z,21.83
2023-01-02T12:33:46.672Z,24.20
2023-01-02T12:36:35.372Z,24.07
2023-01-02T12:39:43.239Z,37.60
2023-01-02T12:42:21.677Z,49.70
2023-01-02T12:44:53.664Z,50.70
2023-01-02T12:47:42.970Z,38.70
2023-01-02T12:50:31.461Z,33.80
2023-01-02T12:53:15.331Z,23.00
2023-01-02T12:55:53.713Z,25.70
2023-01-02T12:58:36.396Z,24.13
2023-01-02T13:01:16.647Z,32.80
2023-01-02T13:04:00.032Z,25.30
2023-01-02T13:06:45.205Z,22.23
2023-01-02T13:09:23.186Z,20.07
2023-01-02T13:12:02.038Z,20.67
2023-01-02T13:14:36.729Z,21.27
2023-01-02T13:17:27.156Z,26.93
2023-01-02T13:20:00.855Z,20.90
2023-01-02T13:22:37.143Z,20.20
2023-01-02T13:25:06.245Z,24.43
2023-01-02T13:27:35.598Z,20.37
2023-01-02T13:30:03.809Z,19.30
2023-01-02T13:32:32.922Z,16.43
2023-01-02T13:35:03.571Z,18.20
2023-01-02T13:37:32.173Z,18.37
2023-01-02T13:40:03.234Z,18.13
2023-01-02T13:42:52.218Z,16.73
2023-01-02T13:45:25.207Z,18.53
2023-01-02T13:47:56.244Z,16.30
2023-01-02T13:50:27.880Z,17.63
2023-01-02T13:53:17.847Z,17.70
2023-01-02T13:56:05.782Z,18.10
2023-01-02T13:58:48.777Z,17.20
2023-01-02T14:01:52.395Z,17.13
2023-01-02T14:04:48.935Z,18.23
2023-01-02T14:07:55.013Z,15.13
2023-01-02T14:10:49.847Z,17.70
2023-01-02T14:13:30.710Z,15.93
2023-01-02T14:16:48.918Z,15.43
2023-01-02T14:19:19.948Z,15.50
2023-01-02T14:21:53.756Z,16.93
2023-01-02T14:24:30.539Z,17.00
2023-01-02T14:27:03.547Z,16.20
2023-01-02T14:29:32.786Z,15.37
2023-01-02T14:32:05.661Z,15.17
2023-01-02T14:34:35.038Z,14.53
2023-01-02T14:37:04.419Z,15.27
2023-01-02T14:39:36.816Z,15.47
2023-01-02T14:42:39.945Z,14.50
2023-01-02T14:45:13.850Z,16.50
2023-01-02T14:47:46.094Z,20.57
2023-01-02T14:50:16.756Z,14.40
2023-01-02T14:52:52.095Z,14.67
2023-01-02T14:55:23.515Z,12.93
2023-01-02T14:57:54.237Z,15.23
2023-01-02T15:00:27.932Z,13.37
2023-01-02T15:03:00.790Z,13.67
2023-01-02T15:05:36.190Z,13.97
2023-01-02T15:08:11.832Z,15.33
2023-01-02T15:10:56.336Z,14.43
2023-01-02T15:13:26.954Z,15.43
2023-01-02T15:16:00.922Z,14.20
2023-01-02T15:18:32.633Z,13.43
2023-01-02T15:21:08.190Z,16.63
2023-01-02T15:23:42.988Z,15.37
2023-01-02T15:26:31.837Z,14.80
2023-01-02T15:29:03.617Z,13.97
2023-01-02T15:31:32.286Z,14.90
2023-01-02T15:34:01.890Z,33.20
2023-01-02T15:36:36.152Z,18.20
2023-01-02T15:39:12.291Z,18.77
2023-01-02T15:41:46.046Z,16.93
2023-01-02T15:44:33.005Z,18.27
2023-01-02T15:47:01.430Z,23.17
2023-01-02T15:49:29.527Z,20.80
2023-01-02T15:51:58.896Z,18.47
2023-01-02T15:54:29.113Z,20.07
2023-01-02T15:57:06.174Z,18.67
2023-01-02T15:59:37.060Z,17.70
2023-01-02T16:02:05.133Z,19.00
2023-01-02T16:04:35.088Z,18.60
2023-01-02T16:07:15.756Z,20.80
2023-01-02T16:09:54.878Z,29.33
2023-01-02T16:12:24.306Z,22.53
2023-01-02T16:14:55.650Z,21.17
2023-01-02T16:17:27.189Z,21.93
2023-01-02T16:19:59.694Z,20.93
2023-01-02T16:22:30.966Z,20.60
2023-01-02T16:25:05.634Z,22.30
2023-01-02T16:27:37.721Z,20.73
2023-01-02T16:30:16.836Z,20.47
2023-01-02T16:32:48.919Z,21.60
2023-01-02T16:35:22.245Z,27.40
2023-01-02T16:37:53.567Z,24.73
2023-01-02T16:41:01.612Z,26.00
2023-01-02T16:43:30.323Z,20.70
2023-01-02T16:45:59.471Z,20.37
2023-01-02T16:48:30.087Z,21.03
2023-01-02T16:50:59.701Z,21.40
2023-01-02T16:53:29.915Z,20.10
2023-01-02T16:56:01.031Z,21.13
2023-01-02T16:58:29.864Z,18.83
2023-01-02T17:00:58.062Z,18.60
2023-01-02T17:03:28.327Z,18.80
2023-01-02T17:06:01.354Z,18.17
2023-01-02T17:08:31.616Z,31.77
2023-01-02T17:11:01.610Z,25.93
2023-01-02T17:13:30.651Z,19.70
2023-01-02T17:15:59.312Z,19.63
2023-01-02T17:18:27.510Z,20.80
2023-01-02T17:20:55.369Z,19.10
2023-01-02T17:23:23.217Z,19.47
2023-01-02T17:25:51.160Z,20.20
2023-01-02T17:28:20.652Z,22.10
2023-01-02T17:30:50.146Z,21.13
2023-01-02T17:33:18.794Z,22.73
2023-01-02T17:35:47.535Z,20.90
2023-01-02T17:38:15.450Z,19.47
2023-01-02T17:40:43.579Z,19.77
2023-01-02T17:43:11.540Z,20.47
2023-01-02T17:45:42.264Z,19.80
2023-01-02T17:48:12.927Z,20.70
2023-01-02T17:50:43.087Z,20.53
2023-01-02T17:53:10.946Z,20.70
2023-01-02T17:55:38.767Z,21.30
2023-01-02T17:58:06.619Z,19.97
2023-01-02T18:00:34.586Z,22.00
2023-01-02T18:03:03.805Z,21.70
2023-01-02T18:05:32.745Z,20.17
2023-01-02T18:08:00.542Z,21.27
2023-01-02T18:10:32.880Z,21.67
2023-01-02T18:13:01.421Z,20.20
2023-01-02T18:15:29.619Z,20.37
2023-01-02T18:18:00.441Z,19.37
2023-01-02T18:20:29.710Z,22.03
2023-01-02T18:22:57.977Z,21.00
2023-01-02T18:25:28.068Z,21.60
2023-01-02T18:27:59.155Z,20.37
2023-01-02T18:30:27.728Z,44.23
2023-01-02T18:33:02.538Z,60.03
2023-01-02T18:38:30.556Z,31.00
2023-01-02T18:40:58.532Z,19.93
2023-01-02T18:43:29.469Z,19.10
2023-01-02T18:46:00.025Z,17.67
2023-01-02T18:48:28.541Z,19.07
2023-01-02T18:51:03.212Z,20.97
2023-01-02T18:53:35.720Z,20.63
2023-01-02T18:56:12.322Z,20.07
2023-01-02T18:58:43.286Z,21.03
2023-01-02T19:01:24.702Z,21.93
2023-01-02T19:03:56.741Z,25.37
2023-01-02T19:06:27.962Z,34.90
2023-01-02T19:09:02.880Z,27.40
2023-01-02T19:11:52.139Z,24.73
2023-01-02T19:14:24.163Z,30.13
2023-01-02T19:16:58.607Z,28.20
2023-01-02T19:19:27.002Z,26.80
2023-01-02T19:21:56.757Z,24.27
2023-01-02T19:24:28.858Z,24.97
2023-01-02T19:26:58.920Z,26.17
2023-01-02T19:29:30.815Z,26.57
2023-01-02T19:32:03.465Z,26.20
2023-01-02T19:34:43.297Z,25.50
2023-01-02T19:37:39.097Z,26.30
2023-01-02T19:40:18.566Z,28.80
2023-01-02T19:42:47.925Z,25.97
2023-01-02T19:45:17.577Z,30.30
2023-01-02T19:47:46.641Z,28.83
2023-01-02T19:50:16.719Z,29.53
2023-01-02T19:52:46.128Z,33.60
2023-01-02T19:55:14.348Z,31.87
2023-01-02T19:57:42.223Z,32.23
2023-01-02T20:00:13.121Z,29.77
2023-01-02T20:02:41.715Z,29.30
2023-01-02T20:05:11.936Z,29.40
2023-01-02T20:07:43.058Z,27.90
2023-01-02T20:10:12.682Z,27.20
2023-01-02T20:12:41.502Z,25.23
2023-01-02T20:15:12.187Z,23.97
2023-01-02T20:17:40.624Z,24.00
2023-01-02T20:20:11.165Z,24.03
2023-01-02T20:22:39.073Z,25.27
2023-01-02T20:25:07.942Z,24.80
2023-01-02T20:27:37.440Z,25.80
2023-01-02T20:30:07.045Z,25.03
2023-01-02T20:32:35.354Z,24.47
2023-01-02T20:35:03.599Z,30.13
2023-01-02T20:37:31.431Z,31.07
2023-01-02T20:39:59.485Z,29.97
2023-01-02T20:42:27.397Z,27.60
2023-01-02T20:44:56.778Z,25.23
2023-01-02T20:47:24.562Z,27.10
2023-01-02T20:49:52.481Z,24.17
2023-01-02T20:52:21.326Z,25.20
2023-01-02T20:57:18.121Z,27.10
2023-01-02T20:59:45.998Z,26.97
2023-01-02T21:02:15.368Z,28.00
2023-01-02T21:04:43.431Z,28.13
2023-01-02T21:07:11.376Z,27.77
2023-01-02T21:09:39.280Z,28.20
2023-01-02T21:12:27.890Z,29.17
2023-01-02T21:14:55.938Z,27.40
2023-01-02T21:17:25.201Z,26.23
2023-01-02T21:19:53.167Z,27.90
2023-01-02T21:22:21.299Z,28.37
2023-01-02T21:24:49.150Z,26.60
2023-01-02T21:27:17.164Z,27.80
2023-01-02T21:29:45.963Z,28.87
2023-01-02T21:32:14.154Z,27.63
2023-01-02T21:34:43.307Z,29.17
2023-01-02T21:37:11.121Z,25.43
2023-01-02T21:39:38.914Z,28.97
2023-01-02T21:42:19.006Z,28.57
2023-01-02T21:44:48.346Z,33.50
2023-01-02T21:47:17.008Z,34.23
2023-01-02T21:49:46.378Z,32.50
2023-01-02T21:52:14.711Z,24.17
2023-01-02T21:54:42.708Z,24.87
2023-01-02T21:57:10.784Z,23.10
2023-01-02T21:59:38.888Z,23.10
2023-01-02T22:02:06.992Z,24.00
2023-01-02T22:04:35.985Z,22.70
2023-01-02T22:09:53.273Z,24.77
2023-01-02T22:12:21.128Z,24.23
2023-01-02T22:14:49.097Z,26.03
2023-01-02T22:17:16.966Z,28.00
2023-01-02T22:19:44.911Z,35.40
2023-01-02T22:22:14.513Z,35.03
2023-01-02T22:24:44.763Z,31.47
2023-01-02T22:27:14.901Z,27.67
2023-01-02T22:30:18.999Z,26.20
2023-01-02T22:32:33.815Z,23.70
2023-01-02T22:35:03.550Z,26.00
2023-01-02T22:37:32.943Z,26.30
2023-01-02T22:40:02.058Z,23.93
2023-01-02T22:43:00.503Z,26.53
2023-01-02T22:45:34.172Z,27.23
2023-01-02T22:48:07.180Z,25.63
2023-01-02T22:50:43.514Z,23.03
2023-01-02T22:53:20.111Z,23.57
2023-01-02T22:55:48.309Z,24.10
2023-01-02T22:58:16.259Z,22.10
2023-01-02T23:00:44.271Z,23.90
2023-01-02T23:03:14.175Z,23.27
2023-01-02T23:05:42.486Z,19.70
2023-01-02T23:08:10.661Z,20.67
2023-01-02T23:10:40.271Z,20.27
2023-01-02T23:13:08.132Z,20.73
2023-01-02T23:15:35.945Z,20.53
2023-01-02T23:18:21.309Z,18.80
2023-01-02T23:20:49.521Z,19.80
2023-01-02T23:23:17.380Z,19.20
2023-01-02T23:25:46.635Z,18.50
2023-01-02T23:28:39.236Z,19.40
2023-01-02T23:31:04.132Z,19.23
2023-01-02T23:33:32.041Z,18.50
2023-01-02T23:36:00.455Z,16.87
2023-01-02T23:38:28.485Z,17.80
2023-01-02T23:40:57.745Z,18.43
2023-01-02T23:43:25.635Z,18.27
2023-01-02T23:45:53.646Z,18.30
2023-01-02T23:48:21.882Z,18.83
2023-01-02T23:50:57.496Z,19.70
2023-01-02T23:53:25.775Z,22.50
2023-01-02T23:55:53.719Z,21.43
2023-01-02T23:58:23.777Z,22.77
